Time;durP1;ratioP1;P1;durP2;ratioP2;P2;SDS_P1;SDS_P2;PMS_P1;PMS_P2;Temp;Humidity;BMP_temperature;BMP_pressure;BME280_temperature;BME280_humidity;BME280_pressure;Samples;Min_cycle;Max_cycle;Signal;HPM_P1;HPM_P2
2023/01/26 00:01:17;;;;;;;8.10;4.40;;;;;;;-1.06;100.00;101708.03;4988099;28;20038;-80
2023/01/26 00:03:45;;;;;;;9.77;4.37;;;;;;;-0.98;100.00;101710.13;4960312;28;20042;-80
2023/01/26 00:06:15;;;;;;;9.53;4.40;;;;;;;-1.13;100.00;101714.66;4961720;28;20042;-79
2023/01/26 00:08:45;;;;;;;9.87;4.77;;;;;;;-1.09;100.00;101710.47;5000673;28;20038;-80
2023/01/26 00:11:15;;;;;;;12.50;5.13;;;;;;;-1.23;100.00;101704.69;4979085;28;20073;-79
2023/01/26 00:13:42;;;;;;;9.07;4.07;;;;;;;-1.21;100.00;101697.88;4985571;28;20046;-80
2023/01/26 00:16:13;;;;;;;9.97;4.70;;;;;;;-1.10;100.00;101696.63;5001466;28;20038;-80
2023/01/26 00:18:41;;;;;;;9.87;4.23;;;;;;;-1.19;100.00;101694.50;5004644;28;20041;-79
2023/01/26 00:21:11;;;;;;;8.07;4.33;;;;;;;-1.13;100.00;101689.59;4988277;28;20054;-80
2023/01/26 00:23:38;;;;;;;11.07;4.93;;;;;;;-1.14;100.00;101686.94;4963478;28;20446;-80
2023/01/26 00:26:06;;;;;;;8.53;4.10;;;;;;;-1.14;100.00;101687.84;4962270;28;20048;-81
2023/01/26 00:28:33;;;;;;;9.23;4.57;;;;;;;-1.06;100.00;101671.72;4993749;28;20091;-80
2023/01/26 00:31:21;;;;;;;10.43;5.37;;;;;;;-1.09;100.00;101675.06;4973650;28;20100;-80
2023/01/26 00:33:48;;;;;;;10.70;5.20;;;;;;;-1.02;100.00;101669.31;4965182;28;20065;-80
2023/01/26 00:36:14;;;;;;;11.87;5.10;;;;;;;-0.87;100.00;101664.75;4973901;28;20043;-80
2023/01/26 00:38:41;;;;;;;9.53;4.90;;;;;;;-0.93;100.00;101664.50;4977658;28;20045;-80
2023/01/26 00:41:08;;;;;;;10.07;5.00;;;;;;;-1.11;100.00;101663.72;4978953;28;20038;-82
2023/01/26 00:43:35;;;;;;;12.50;4.60;;;;;;;-1.07;100.00;101667.34;4961246;28;20042;-80
2023/01/26 00:46:02;;;;;;;11.30;4.83;;;;;;;-1.10;100.00;101660.31;4997062;28;20038;-81
2023/01/26 00:48:29;;;;;;;11.17;5.00;;;;;;;-1.15;100.00;101660.13;4964657;28;20038;-80
2023/01/26 00:50:56;;;;;;;12.60;5.63;;;;;;;-1.11;100.00;101655.94;4988376;28;20431;-81
2023/01/26 00:53:24;;;;;;;13.33;6.70;;;;;;;-1.10;100.00;101660.31;4971266;28;20073;-81
2023/01/26 00:55:54;;;;;;;11.17;4.77;;;;;;;-0.99;100.00;101653.88;4955171;28;20399;-80
2023/01/26 00:58:21;;;;;;;10.97;5.60;;;;;;;-0.96;100.00;101656.59;4975983;28;20136;-80
2023/01/26 01:00:48;;;;;;;11.93;4.53;;;;;;;-1.06;100.00;101650.97;4970401;28;20064;-81
2023/01/26 01:03:14;;;;;;;10.63;4.90;;;;;;;-0.87;100.00;101658.69;4964127;28;20147;-79
2023/01/26 01:05:41;;;;;;;9.93;3.83;;;;;;;-1.06;100.00;101669.13;4977715;28;20046;-81
2023/01/26 01:08:08;;;;;;;10.83;4.27;;;;;;;-1.10;100.00;101662.00;4955583;28;20047;-79
2023/01/26 01:10:34;;;;;;;8.23;4.20;;;;;;;-1.10;100.00;101662.00;4978470;28;20062;-80
2023/01/26 01:13:01;;;;;;;7.43;3.77;;;;;;;-1.09;100.00;101653.41;4995132;28;20040;-81
2023/01/26 01:15:28;;;;;;;8.93;4.37;;;;;;;-1.16;100.00;101644.50;4977630;28;20042;-79
2023/01/26 01:17:54;;;;;;;8.53;3.87;;;;;;;-1.18;100.00;101641.88;4980339;28;20690;-80
2023/01/26 01:20:21;;;;;;;8.80;3.37;;;;;;;-1.14;100.00;101648.94;4992033;28;20045;-81
2023/01/26 01:22:50;;;;;;;8.53;3.73;;;;;;;-1.18;100.00;101635.75;4983989;28;20037;-79
2023/01/26 01:25:16;;;;;;;7.57;3.57;;;;;;;-1.06;100.00;101638.00;4992701;28;20215;-79
2023/01/26 01:27:43;;;;;;;6.77;3.63;;;;;;;-1.10;100.00;101639.56;5001747;28;20030;-80
2023/01/26 01:30:10;;;;;;;7.10;3.53;;;;;;;-1.17;100.00;101632.38;5002488;28;20088;-79
2023/01/26 01:32:40;;;;;;;6.63;3.73;;;;;;;-1.11;100.00;101626.53;5002045;28;20041;-80
2023/01/26 01:35:07;;;;;;;9.20;4.33;;;;;;;-1.22;100.00;101623.50;4986806;28;20038;-81
2023/01/26 01:37:35;;;;;;;7.87;3.70;;;;;;;-1.14;100.00;101628.19;4963704;28;20038;-80
2023/01/26 01:40:02;;;;;;;11.00;4.23;;;;;;;-1.07;100.00;101625.88;4986918;28;20052;-79
2023/01/26 01:42:29;;;;;;;8.77;4.13;;;;;;;-1.06;100.00;101622.44;4968209;28;20369;-80
2023/01/26 01:45:33;;;;;;;10.80;4.47;;;;;;;-1.03;100.00;101622.56;4997840;28;20533;-79
2023/01/26 01:48:02;;;;;;;8.93;4.10;;;;;;;-1.06;100.00;101612.06;4994012;28;20050;-80
2023/01/26 01:50:30;;;;;;;9.33;5.00;;;;;;;-1.06;100.00;101614.66;5002465;28;20038;-80
2023/01/26 01:52:57;;;;;;;9.20;4.17;;;;;;;-1.17;100.00;101607.31;4970285;28;20103;-79
2023/01/26 01:55:24;;;;;;;10.03;4.67;;;;;;;-1.16;100.00;101601.31;4985165;28;20084;-81
2023/01/26 01:57:54;;;;;;;11.13;4.67;;;;;;;-1.19;100.00;101606.34;4963605;28;20061;-79
2023/01/26 02:00:22;;;;;;;9.97;4.40;;;;;;;-1.27;100.00;101599.06;4976975;28;20053;-79
2023/01/26 02:03:11;;;;;;;8.23;3.97;;;;;;;-1.24;100.00;101596.63;4969319;28;20038;-78
2023/01/26 02:05:44;;;;;;;12.77;5.43;;;;;;;-1.22;100.00;101592.38;4999839;28;20049;-79
2023/01/26 02:08:13;;;;;;;13.75;5.03;;;;;;;-1.22;100.00;101587.19;4998321;28;20030;-79
2023/01/26 02:10:42;;;;;;;12.00;5.67;;;;;;;-1.13;100.00;101592.78;4986275;28;20038;-79
2023/01/26 02:13:10;;;;;;;13.87;5.13;;;;;;;-1.16;100.00;101585.75;4984308;28;20155;-79
2023/01/26 02:15:37;;;;;;;14.03;5.70;;;;;;;-1.10;100.00;101584.22;4969403;28;20157;-80
2023/01/26 02:18:04;;;;;;;11.80;6.17;;;;;;;-1.13;100.00;101585.88;4980359;28;20058;-79
2023/01/26 02:20:43;;;;;;;15.63;7.17;;;;;;;-1.11;100.00;101577.28;4982613;28;20033;-79
2023/01/26 02:23:20;;;;;;;11.50;5.67;;;;;;;-1.16;100.00;101582.28;4978837;28;20069;-80
2023/01/26 02:25:51;;;;;;;9.87;5.17;;;;;;;-1.18;100.00;101583.91;4994773;28;20033;-80
2023/01/26 02:28:21;;;;;;;16.33;6.33;;;;;;;-1.04;100.00;101581.88;4981135;28;20069;-79
2023/01/26 02:30:47;;;;;;;45.87;8.60;;;;;;;-1.08;100.00;101574.81;4991766;28;20034;-79
2023/01/26 02:33:18;;;;;;;17.23;6.70;;;;;;;-1.06;100.00;101567.97;4979666;28;20092;-79
2023/01/26 02:35:45;;;;;;;15.30;7.47;;;;;;;-1.10;100.00;101566.94;4966573;28;20037;-79
2023/01/26 02:38:12;;;;;;;15.53;6.43;;;;;;;-1.15;100.00;101571.97;4965892;28;20046;-79
2023/01/26 02:40:49;;;;;;;15.80;6.17;;;;;;;-1.15;100.00;101571.97;4977320;28;20041;-79
2023/01/26 02:43:16;;;;;;;14.60;7.33;;;;;;;-1.11;100.00;101560.00;4990408;28;20419;-80
2023/01/26 02:45:43;;;;;;;15.00;6.63;;;;;;;-1.04;100.00;101568.94;4976632;28;20042;-79
2023/01/26 02:48:09;;;;;;;15.93;7.43;;;;;;;-1.06;100.00;101567.97;4998142;28;20034;-79
2023/01/26 02:50:36;;;;;;;15.97;7.57;;;;;;;-1.08;100.00;101567.03;4964473;28;20462;-79
2023/01/26 02:53:03;;;;;;;13.93;6.97;;;;;;;-1.05;100.00;101565.44;4967353;28;20118;-79
2023/01/26 02:55:30;;;;;;;11.53;6.10;;;;;;;-1.09;100.00;101566.16;4981759;28;20061;-79
2023/01/26 02:58:02;;;;;;;17.53;7.37;;;;;;;-1.17;100.00;101559.78;4996982;28;20042;-80
2023/01/26 03:00:31;;;;;;;15.03;6.23;;;;;;;-1.16;100.00;101562.41;4995269;28;20038;-79
2023/01/26 03:03:00;;;;;;;14.77;7.13;;;;;;;-1.21;100.00;101555.25;4982282;28;20152;-79
2023/01/26 03:05:27;;;;;;;13.47;7.00;;;;;;;-1.04;100.00;101561.16;4978394;28;20042;-79
2023/01/26 03:07:54;;;;;;;14.07;6.13;;;;;;;-1.17;100.00;101555.47;4980538;28;20041;-79
2023/01/26 03:10:24;;;;;;;18.30;7.17;;;;;;;-1.18;100.00;101557.97;4959644;28;20556;-79
2023/01/26 03:12:51;;;;;;;14.07;7.03;;;;;;;-1.10;100.00;101556.59;4966859;28;20109;-79
2023/01/26 03:29:05;;;;;;;16.90;6.27;;;;;;;-1.24;100.00;101537.88;4997715;28;20101;-79
2023/01/26 03:31:32;;;;;;;15.70;6.97;;;;;;;-1.25;100.00;101538.72;4982751;28;20042;-80
2023/01/26 03:33:59;;;;;;;16.17;7.90;;;;;;;-1.29;100.00;101539.38;4980115;28;20549;-79
2023/01/26 03:36:25;;;;;;;15.63;6.23;;;;;;;-1.20;100.00;101541.47;5000323;28;20042;-79
2023/01/26 03:38:52;;;;;;;13.90;5.83;;;;;;;-1.16;100.00;101541.69;4988480;28;20049;-78
2023/01/26 03:57:51;;;;;;;16.00;7.00;;;;;;;-1.18;100.00;101537.22;5005624;28;20037;-80
2023/01/26 04:00:18;;;;;;;14.23;6.07;;;;;;;-1.21;100.00;101538.00;4988683;28;20096;-80
2023/01/26 04:08:25;;;;;;;14.67;6.67;;;;;;;-1.21;100.00;101530.22;4980057;28;20038;-78
2023/01/26 04:10:53;;;;;;;15.27;6.67;;;;;;;-1.20;100.00;101525.91;4973395;28;20041;-78
2023/01/26 04:21:41;;;;;;;12.23;5.37;;;;;;;-1.23;100.00;101531.00;4989799;28;20072;-79
2023/01/26 04:24:13;;;;;;;17.30;6.77;;;;;;;-1.24;100.00;101531.81;4994292;28;20042;-79
2023/01/26 04:26:43;;;;;;;15.53;6.93;;;;;;;-1.22;100.00;101524.97;4999217;28;20108;-79
2023/01/26 04:29:11;;;;;;;15.63;8.23;;;;;;;-1.23;100.00;101515.44;5001121;28;20069;-79
2023/01/26 04:31:38;;;;;;;13.57;6.37;;;;;;;-0.99;100.00;101518.13;4987512;28;20459;-79
2023/01/26 04:34:06;;;;;;;14.00;7.03;;;;;;;-1.17;100.00;101513.09;4966000;28;20158;-79
2023/01/26 04:36:33;;;;;;;16.33;6.43;;;;;;;-1.23;100.00;101513.72;4990891;28;20034;-79
2023/01/26 04:39:00;;;;;;;18.20;7.53;;;;;;;-1.07;100.00;101511.75;4973929;28;20065;-80
2023/01/26 04:41:28;;;;;;;11.40;6.63;;;;;;;-1.25;100.00;101505.00;4981863;28;20054;-79
2023/01/26 04:43:55;;;;;;;15.53;6.80;;;;;;;-1.30;100.00;101501.34;4977613;28;20045;-80
2023/01/26 04:46:22;;;;;;;15.43;7.40;;;;;;;-1.21;100.00;101495.63;4961706;28;20096;-79
2023/01/26 04:48:48;;;;;;;15.80;7.20;;;;;;;-1.25;100.00;101491.16;4972847;28;20068;-79
2023/01/26 04:51:18;;;;;;;14.63;6.47;;;;;;;-1.17;100.00;101497.53;4978460;28;20049;-79
2023/01/26 04:53:46;;;;;;;13.43;6.10;;;;;;;-1.20;100.00;101500.88;4980799;28;20037;-79
2023/01/26 04:56:27;;;;;;;13.30;6.63;;;;;;;-1.29;100.00;101499.63;5061573;22;20030;-83
2023/01/26 04:58:54;;;;;;;14.80;6.80;;;;;;;-1.28;100.00;101491.91;4970777;28;20035;-81
2023/01/26 05:01:21;;;;;;;16.17;7.07;;;;;;;-1.28;100.00;101498.78;4967777;28;20046;-79
2023/01/26 05:03:48;;;;;;;16.03;6.93;;;;;;;-1.19;100.00;101493.97;4994559;28;20202;-79
2023/01/26 05:06:15;;;;;;;14.47;6.30;;;;;;;-1.36;100.00;101490.72;4986886;28;20179;-80
2023/01/26 05:08:42;;;;;;;11.90;6.33;;;;;;;-1.29;100.00;101497.03;4990417;28;20483;-80
2023/01/26 05:11:09;;;;;;;17.40;6.23;;;;;;;-1.26;100.00;101491.97;4994976;28;20491;-80
2023/01/26 05:13:36;;;;;;;15.33;6.37;;;;;;;-1.18;100.00;101495.75;4988052;28;20068;-79
2023/01/26 05:16:03;;;;;;;12.83;6.13;;;;;;;-1.23;100.00;101499.88;4965381;28;20035;-79
2023/01/26 05:18:30;;;;;;;15.80;7.03;;;;;;;-1.24;100.00;101492.94;4953350;28;20411;-79
2023/01/26 05:20:56;;;;;;;12.90;6.40;;;;;;;-1.33;100.00;101500.34;4964348;28;20093;-79
2023/01/26 05:23:23;;;;;;;14.73;6.60;;;;;;;-1.38;100.00;101497.53;4982698;28;20714;-79
2023/01/26 05:25:50;;;;;;;16.37;6.37;;;;;;;-1.34;100.00;101496.88;4976941;28;20038;-79
2023/01/26 05:28:16;;;;;;;15.10;7.20;;;;;;;-1.34;100.00;101498.56;4972258;28;20042;-79
2023/01/26 05:30:43;;;;;;;16.20;6.87;;;;;;;-1.25;100.00;101494.63;4955026;28;20115;-79
2023/01/26 05:33:10;;;;;;;15.50;6.93;;;;;;;-1.25;100.00;101496.34;4950038;28;20141;-79
2023/01/26 05:35:37;;;;;;;13.07;6.43;;;;;;;-1.30;100.00;101497.84;4959218;28;20621;-80
2023/01/26 05:38:04;;;;;;;13.70;7.03;;;;;;;-1.36;100.00;101501.06;4981387;28;20113;-80
2023/01/26 05:40:30;;;;;;;14.13;6.53;;;;;;;-1.35;100.00;101500.25;4961997;28;20474;-80
2023/01/26 05:42:57;;;;;;;11.70;6.53;;;;;;;-1.47;100.00;101502.34;4970054;28;20094;-80
2023/01/26 05:45:23;;;;;;;13.63;6.23;;;;;;;-1.42;100.00;101498.25;4954598;28;20054;-80
2023/01/26 05:47:50;;;;;;;16.40;7.57;;;;;;;-1.38;100.00;101491.47;4962260;28;20046;-79
2023/01/26 05:50:17;;;;;;;13.00;6.13;;;;;;;-1.37;100.00;101494.13;4954362;28;20480;-80
2023/01/26 05:52:45;;;;;;;11.20;6.07;;;;;;;-1.14;100.00;101497.66;4989700;28;20042;-79
2023/01/26 05:55:12;;;;;;;12.07;5.40;;;;;;;-1.38;100.00;101500.13;4991336;28;20045;-79
2023/01/26 05:57:39;;;;;;;10.73;5.80;;;;;;;-1.51;100.00;101503.94;4957504;28;20050;-79
2023/01/26 06:00:07;;;;;;;13.40;5.73;;;;;;;-1.35;100.00;101508.03;4972109;28;20050;-78
2023/01/26 06:02:34;;;;;;;17.17;7.03;;;;;;;-1.48;100.00;101505.75;4982715;28;20046;-79
2023/01/26 06:05:00;;;;;;;14.77;7.23;;;;;;;-1.48;100.00;101490.22;4980648;28;20062;-79
2023/01/26 06:07:27;;;;;;;14.73;7.03;;;;;;;-1.44;100.00;101498.16;4964028;28;20069;-79
2023/01/26 06:09:54;;;;;;;11.40;5.83;;;;;;;-1.48;100.00;101500.59;4980879;28;20050;-79
2023/01/26 06:12:21;;;;;;;14.07;6.83;;;;;;;-1.51;100.00;101503.06;4958224;28;20047;-79
2023/01/26 06:14:48;;;;;;;11.93;6.20;;;;;;;-1.57;100.00;101515.75;4982306;28;20563;-79
2023/01/26 06:17:16;;;;;;;13.97;6.50;;;;;;;-1.54;100.00;101510.69;5004002;28;20038;-79
2023/01/26 06:19:43;;;;;;;13.07;5.07;;;;;;;-1.53;100.00;101507.25;4961805;28;20049;-79
2023/01/26 06:22:11;;;;;;;13.70;5.97;;;;;;;-1.58;100.00;101493.25;4998173;28;20443;-79
2023/01/26 06:24:37;;;;;;;12.33;5.80;;;;;;;-1.53;100.00;101508.16;5005217;28;20057;-79
2023/01/26 06:27:06;;;;;;;13.93;6.27;;;;;;;-1.35;100.00;101509.72;4997753;28;20046;-79
2023/01/26 06:29:32;;;;;;;13.77;6.20;;;;;;;-1.36;100.00;101515.75;4964972;28;20046;-80
2023/01/26 06:31:59;;;;;;;10.93;5.27;;;;;;;-1.33;100.00;101513.28;4964587;28;20619;-79
2023/01/26 06:34:26;;;;;;;14.00;6.77;;;;;;;-1.44;100.00;101512.81;4989781;28;20042;-79
2023/01/26 06:36:53;;;;;;;13.37;5.20;;;;;;;-1.48;100.00;101501.47;4979050;28;20047;-79
2023/01/26 06:39:20;;;;;;;10.40;5.00;;;;;;;-1.47;100.00;101508.41;4982182;28;20411;-79
2023/01/26 06:41:46;;;;;;;12.97;5.60;;;;;;;-1.44;100.00;101510.25;4969000;28;20053;-79
2023/01/26 06:44:13;;;;;;;13.47;6.03;;;;;;;-1.44;100.00;101515.41;4989814;28;20046;-80
2023/01/26 06:46:39;;;;;;;11.67;5.03;;;;;;;-1.45;100.00;101519.72;4966259;28;20110;-79
2023/01/26 06:49:07;;;;;;;10.37;5.07;;;;;;;-1.44;100.00;101508.53;4980690;28;20042;-79
2023/01/26 06:52:03;;;;;;;10.43;4.93;;;;;;;-1.27;100.00;101519.59;4964139;28;20066;-80
2023/01/26 06:54:30;;;;;;;11.80;5.50;;;;;;;-1.32;100.00;101521.13;4970551;28;20059;-81
2023/01/26 06:56:57;;;;;;;10.70;5.50;;;;;;;-1.43;100.00;101506.81;4985560;28;20031;-81
2023/01/26 06:59:23;;;;;;;10.27;5.57;;;;;;;-1.43;100.00;101512.00;4957780;28;20039;-80
2023/01/26 07:01:50;;;;;;;11.90;5.73;;;;;;;-1.44;100.00;101507.66;4941746;28;20051;-80
2023/01/26 07:04:17;;;;;;;9.10;4.93;;;;;;;-1.40;100.00;101508.69;4960278;28;20043;-80
2023/01/26 07:06:44;;;;;;;11.90;5.27;;;;;;;-1.16;100.00;101505.38;4972784;28;20070;-81
2023/01/26 07:09:10;;;;;;;10.17;5.83;;;;;;;-1.29;100.00;101516.06;4973156;28;20469;-80
2023/01/26 07:11:37;;;;;;;10.93;5.17;;;;;;;-1.37;100.00;101507.09;4957125;28;20508;-80
2023/01/26 07:14:04;;;;;;;8.57;4.00;;;;;;;-1.41;100.00;101505.19;4957251;28;20467;-80
2023/01/26 07:16:30;;;;;;;8.37;4.47;;;;;;;-1.40;100.00;101504.38;4961963;28;20581;-80
2023/01/26 07:18:59;;;;;;;10.37;5.13;;;;;;;-1.36;100.00;101507.97;4974700;28;20069;-80
2023/01/26 07:21:26;;;;;;;8.13;4.30;;;;;;;-1.36;100.00;101503.66;4960505;28;20133;-80
2023/01/26 07:23:54;;;;;;;7.97;4.90;;;;;;;-1.34;100.00;101509.81;4974401;28;20546;-80
2023/01/26 07:26:21;;;;;;;9.53;4.30;;;;;;;-1.37;100.00;101499.31;4957044;28;20094;-81
2023/01/26 07:28:47;;;;;;;10.07;5.30;;;;;;;-1.35;100.00;101502.84;4957409;28;20045;-80
2023/01/26 07:31:14;;;;;;;8.13;4.80;;;;;;;-1.32;100.00;101500.41;4941047;28;20054;-80
2023/01/26 07:33:41;;;;;;;9.73;4.47;;;;;;;-1.26;100.00;101517.88;4940665;28;20043;-80
2023/01/26 07:36:09;;;;;;;9.53;5.13;;;;;;;-1.28;100.00;101515.22;4964120;28;20046;-80
2023/01/26 07:38:37;;;;;;;8.30;4.10;;;;;;;-1.23;100.00;101521.50;4981825;28;20045;-80
2023/01/26 07:41:06;;;;;;;8.37;4.10;;;;;;;-1.07;100.00;101522.13;4969793;28;20580;-81
2023/01/26 07:43:34;;;;;;;8.40;4.17;;;;;;;-1.14;100.00;101519.28;4991545;28;20091;-81
2023/01/26 07:46:01;;;;;;;8.47;3.80;;;;;;;-1.10;100.00;101514.22;4978220;28;20451;-81
2023/01/26 07:48:30;;;;;;;8.33;4.60;;;;;;;-1.13;100.00;101510.69;4958262;28;20042;-78
2023/01/26 07:50:59;;;;;;;9.50;5.10;;;;;;;-1.11;100.00;101515.03;4954147;28;20049;-79
2023/01/26 07:53:28;;;;;;;8.87;4.37;;;;;;;-1.11;100.00;101520.22;4984971;28;20073;-80
2023/01/26 07:56:07;;;;;;;9.90;4.37;;;;;;;-1.09;100.00;101524.66;4985579;28;20039;-79
2023/01/26 07:58:35;;;;;;;9.37;4.63;;;;;;;-1.07;100.00;101520.41;4978521;28;20042;-80
2023/01/26 08:01:07;;;;;;;8.03;4.43;;;;;;;-1.06;100.00;101521.31;4982443;28;20046;-80
2023/01/26 08:03:34;;;;;;;10.50;4.83;;;;;;;-1.01;100.00;101517.16;4959495;28;20097;-80
2023/01/26 08:06:01;;;;;;;8.77;3.87;;;;;;;-0.97;100.00;101516.47;4981286;28;20050;-79
2023/01/26 08:08:27;;;;;;;11.83;4.37;;;;;;;-0.98;100.00;101523.38;4957826;28;20046;-80
2023/01/26 08:10:59;;;;;;;8.50;4.07;;;;;;;-0.97;100.00;101527.75;4986086;28;20753;-78
2023/01/26 08:13:26;;;;;;;9.83;4.30;;;;;;;-0.88;100.00;101522.03;4989854;28;20072;-79
2023/01/26 08:16:03;;;;;;;8.53;3.93;;;;;;;-0.94;100.00;101521.78;4963008;28;20050;-79
2023/01/26 08:18:30;;;;;;;9.90;5.23;;;;;;;-0.98;100.00;101522.50;4989332;28;20046;-80
2023/01/26 08:20:57;;;;;;;9.10;4.80;;;;;;;-0.95;100.00;101515.72;4982612;28;20045;-80
2023/01/26 08:23:24;;;;;;;8.50;4.10;;;;;;;-1.25;100.00;101519.69;5002054;28;20046;-79
2023/01/26 08:25:50;;;;;;;8.63;4.87;;;;;;;-1.15;100.00;101520.13;4979989;28;20070;-79
2023/01/26 08:28:17;;;;;;;7.27;4.33;;;;;;;-1.04;100.00;101519.66;4998323;28;20503;-80
2023/01/26 08:30:46;;;;;;;15.47;7.53;;;;;;;-1.03;100.00;101521.41;4990899;28;20058;-79
2023/01/26 08:33:13;;;;;;;16.97;10.47;;;;;;;-0.93;100.00;101515.75;4984477;28;20053;-80
2023/01/26 08:35:39;;;;;;;20.60;8.97;;;;;;;-0.82;100.00;101522.28;4973056;28;20042;-79
2023/01/26 08:38:06;;;;;;;21.80;11.23;;;;;;;-0.85;100.00;101520.44;4948653;28;20038;-80
2023/01/26 08:40:33;;;;;;;9.33;5.27;;;;;;;-0.91;100.00;101527.09;4976424;28;20109;-80
2023/01/26 08:43:00;;;;;;;10.13;4.50;;;;;;;-0.85;100.00;101516.94;4986076;28;20050;-78
2023/01/26 08:45:27;;;;;;;9.10;4.10;;;;;;;-0.87;100.00;101516.00;4992608;28;20042;-79
2023/01/26 08:47:54;;;;;;;8.27;4.43;;;;;;;-1.00;100.00;101516.38;4993154;28;20054;-79
2023/01/26 08:50:21;;;;;;;6.67;3.70;;;;;;;-0.97;100.00;101522.56;4982354;28;20105;-79
2023/01/26 08:52:47;;;;;;;8.57;3.97;;;;;;;-1.00;100.00;101532.81;4965663;28;20042;-78
2023/01/26 08:55:14;;;;;;;9.00;4.07;;;;;;;-0.97;100.00;101534.63;4989706;28;20046;-79
2023/01/26 08:57:41;;;;;;;8.83;4.97;;;;;;;-0.89;100.00;101531.53;4988056;28;20033;-79
2023/01/26 09:00:08;;;;;;;8.57;4.10;;;;;;;-0.75;100.00;101533.78;4975595;28;20068;-79
2023/01/26 09:02:35;;;;;;;7.70;3.27;;;;;;;-0.94;100.00;101532.16;5016502;28;20045;-78
2023/01/26 09:05:02;;;;;;;7.20;3.63;;;;;;;-0.94;100.00;101532.16;4980006;28;20071;-79
2023/01/26 09:07:29;;;;;;;8.67;4.00;;;;;;;-0.89;100.00;101534.13;4945223;28;20043;-79
2023/01/26 09:09:55;;;;;;;5.93;2.97;;;;;;;-1.06;100.00;101531.69;4962499;28;20550;-79
2023/01/26 09:12:22;;;;;;;4.53;3.00;;;;;;;-0.98;100.00;101525.09;4946838;28;20051;-79
2023/01/26 09:14:48;;;;;;;5.43;2.80;;;;;;;-1.17;100.00;101532.13;4945968;28;20106;-78
2023/01/26 09:17:15;;;;;;;6.00;3.13;;;;;;;-1.22;100.00;101523.28;4949776;28;20448;-79
2023/01/26 09:19:42;;;;;;;9.00;4.47;;;;;;;-1.19;100.00;101518.19;4963408;28;20051;-80
2023/01/26 09:22:10;;;;;;;4.27;2.70;;;;;;;-1.15;100.00;101521.81;4980253;28;20066;-78
2023/01/26 09:24:37;;;;;;;6.40;3.47;;;;;;;-1.25;100.00;101520.56;4978913;28;20042;-79
2023/01/26 09:27:03;;;;;;;5.27;2.90;;;;;;;-1.09;100.00;101527.25;4961830;28;20038;-79
2023/01/26 09:29:30;;;;;;;5.57;3.17;;;;;;;-1.28;100.00;101523.00;4976756;28;20039;-79
2023/01/26 09:31:57;;;;;;;6.50;3.53;;;;;;;-1.07;100.00;101516.94;4956771;28;20503;-79
2023/01/26 09:34:24;;;;;;;4.97;3.13;;;;;;;-1.14;100.00;101521.88;4945140;28;20105;-79
2023/01/26 09:36:50;;;;;;;4.50;3.03;;;;;;;-1.20;100.00;101521.63;4974798;28;20039;-79
2023/01/26 09:39:17;;;;;;;6.80;3.33;;;;;;;-1.22;100.00;101527.56;4962436;28;20039;-79
2023/01/26 09:41:54;;;;;;;6.23;3.17;;;;;;;-1.26;100.00;101529.16;4993283;28;20042;-79
2023/01/26 09:44:24;;;;;;;4.90;2.60;;;;;;;-0.98;100.00;101527.69;4977527;28;20520;-79
2023/01/26 09:47:00;;;;;;;6.00;2.93;;;;;;;-0.97;100.00;101527.75;4977434;28;20085;-80
2023/01/26 09:49:41;;;;;;;5.83;2.80;;;;;;;-0.89;100.00;101530.63;4979827;28;20459;-79
2023/01/26 09:52:23;;;;;;;4.40;2.47;;;;;;;-0.75;100.00;101528.59;4964432;28;20054;-79
2023/01/26 09:54:51;;;;;;;5.47;3.30;;;;;;;-0.86;100.00;101528.16;4963562;28;20047;-79
2023/01/26 09:57:56;;;;;;;5.33;3.00;;;;;;;-0.91;100.00;101528.00;4977281;28;20041;-79
2023/01/26 10:00:32;;;;;;;5.82;2.63;;;;;;;-0.78;100.00;101526.75;4993984;28;20050;-79
2023/01/26 10:03:24;;;;;;;5.53;2.60;;;;;;;-0.60;100.00;101516.19;4982351;28;20039;-79
2023/01/26 10:05:57;;;;;;;6.63;3.47;;;;;;;-0.65;100.00;101513.44;4993518;28;20031;-79
2023/01/26 10:08:25;;;;;;;5.13;2.22;;;;;;;-0.75;100.00;101520.81;4982437;28;20034;-79
2023/01/26 10:10:56;;;;;;;5.60;2.80;;;;;;;-0.75;100.00;101515.63;4965995;28;20042;-79
2023/01/26 10:13:23;;;;;;;4.00;2.30;;;;;;;-0.78;100.00;101518.97;4997621;28;20073;-79
2023/01/26 10:16:02;;;;;;;3.93;2.57;;;;;;;-0.69;100.00;101501.16;4960491;28;20042;-79
2023/01/26 10:18:35;;;;;;;4.93;2.80;;;;;;;-0.67;100.00;101491.75;4974821;28;20114;-79
2023/01/26 10:21:03;;;;;;;6.00;3.00;;;;;;;-0.63;100.00;101488.44;4988857;28;20045;-79
2023/01/26 10:23:32;;;;;;;5.37;2.97;;;;;;;-0.51;100.00;101490.59;4976312;28;20038;-79
2023/01/26 10:26:13;;;;;;;4.37;2.63;;;;;;;-0.48;100.00;101492.44;4973521;28;20047;-79
2023/01/26 10:28:42;;;;;;;5.03;2.80;;;;;;;-0.51;100.00;101489.72;4993208;28;20050;-80
2023/01/26 10:31:19;;;;;;;4.50;2.87;;;;;;;-0.42;100.00;101482.25;4973974;28;20043;-81
2023/01/26 10:34:12;;;;;;;6.17;3.70;;;;;;;-0.46;100.00;101477.78;4960260;28;20081;-81
2023/01/26 10:36:39;;;;;;;9.70;4.60;;;;;;;-0.34;100.00;101480.81;4971089;28;20089;-81
2023/01/26 10:39:08;;;;;;;7.60;4.83;;;;;;;-0.28;100.00;101470.69;4948313;28;20400;-80
2023/01/26 10:41:35;;;;;;;11.30;5.40;;;;;;;-0.24;100.00;101463.91;4993900;28;20035;-81
2023/01/26 10:44:19;;;;;;;6.83;4.03;;;;;;;-0.15;100.00;101474.63;4962762;28;20428;-81
2023/01/26 10:47:02;;;;;;;12.35;7.60;;;;;;;-0.27;100.00;101464.66;4973733;28;20042;-81
2023/01/26 10:49:29;;;;;;;12.07;7.33;;;;;;;-0.25;100.00;101465.63;4968669;28;20096;-81
2023/01/26 10:52:20;;;;;;;7.43;5.00;;;;;;;-0.30;100.00;101467.16;4963717;28;20092;-81
2023/01/26 10:54:48;;;;;;;6.23;4.00;;;;;;;-0.30;100.00;101462.84;4958115;28;20043;-82
2023/01/26 10:57:21;;;;;;;5.90;4.00;;;;;;;-0.39;100.00;101457.31;4941502;28;20322;-81
2023/01/26 10:59:47;;;;;;;6.23;3.47;;;;;;;-0.28;100.00;101457.69;5040587;23;20119;-80
2023/01/26 11:02:14;;;;;;;5.53;3.40;;;;;;;-0.31;100.00;101450.69;5027919;28;20064;-80
2023/01/26 11:05:20;;;;;;;5.73;2.93;;;;;;;-0.74;100.00;101455.13;5029737;28;20258;-79
2023/01/26 11:07:49;;;;;;;5.00;2.73;;;;;;;-0.65;100.00;101461.53;5036690;28;20029;-80
2023/01/26 11:10:20;;;;;;;5.23;3.13;;;;;;;-0.65;100.00;101465.84;5027384;28;20049;-81
2023/01/26 11:12:48;;;;;;;5.27;2.90;;;;;;;-0.64;100.00;101452.94;5025441;28;20076;-81
2023/01/26 11:15:23;;;;;;;5.83;3.17;;;;;;;-0.68;100.00;101450.16;5034795;28;20049;-82
2023/01/26 11:18:00;;;;;;;5.23;3.23;;;;;;;-0.48;100.00;101451.78;5013002;28;20097;-81
2023/01/26 11:20:59;;;;;;;5.83;3.10;;;;;;;-0.68;100.00;101443.25;5049410;28;20049;-81
2023/01/26 11:23:40;;;;;;;6.13;3.03;;;;;;;-0.68;100.00;101453.63;5011932;28;20174;-83
2023/01/26 11:26:25;;;;;;;4.83;2.70;;;;;;;-0.54;100.00;101442.88;5038407;28;20048;-82
2023/01/26 11:29:22;;;;;;;6.13;3.73;;;;;;;-0.46;100.00;101442.34;5045417;28;20037;-82
2023/01/26 11:32:01;;;;;;;6.80;4.00;;;;;;;-0.50;100.00;101440.47;5024889;28;20036;-81
2023/01/26 11:34:40;;;;;;;5.60;3.50;;;;;;;-0.41;100.00;101443.41;5050410;28;20489;-81
2023/01/26 11:37:35;;;;;;;8.50;4.07;;;;;;;-0.44;100.00;101432.00;5032263;28;20260;-81
2023/01/26 11:40:09;;;;;;;6.07;3.45;;;;;;;-0.44;100.00;101435.47;5035114;28;20033;-81
2023/01/26 11:42:49;;;;;;;6.70;3.67;;;;;;;-0.20;100.00;101432.00;5026769;28;20041;-80
2023/01/26 11:45:23;;;;;;;7.77;3.43;;;;;;;-0.20;100.00;101439.78;5025188;28;20091;-80
2023/01/26 11:48:08;;;;;;;6.07;3.70;;;;;;;-0.30;100.00;101431.69;5010710;28;20033;-80
2023/01/26 11:50:46;;;;;;;5.43;3.63;;;;;;;-0.24;100.00;101431.03;5031685;28;20040;-81
2023/01/26 11:53:22;;;;;;;5.00;3.60;;;;;;;-0.49;100.00;101428.38;5005010;28;20056;-81
2023/01/26 11:55:58;;;;;;;9.17;4.80;;;;;;;-0.54;100.00;101428.19;5047062;28;20038;-81
2023/01/26 11:58:25;;;;;;;15.40;9.47;;;;;;;-0.54;100.00;101419.53;5046422;28;20102;-80
2023/01/26 12:00:55;;;;;;;14.17;9.03;;;;;;;-0.56;100.00;101422.06;5020904;28;20037;-80
2023/01/26 12:03:26;;;;;;;10.17;5.27;;;;;;;-0.72;100.00;101409.34;5035162;28;20053;-81
2023/01/26 12:05:56;;;;;;;9.53;5.77;;;;;;;-0.72;100.00;101411.94;5018252;28;20044;-80
2023/01/26 12:08:50;;;;;;;11.73;7.13;;;;;;;-0.57;100.00;101415.13;5019817;28;20041;-80